Terminal Aerodrome Forecast
Issued by NWS Paducah, KY

Home | Current Version | Previous Version | Text Only | Print | Product List | Glossary On
Versions: 1 2 3 4 5 6 7 8 9 10 11 12 13
804
FTUS43 KPAH 041120
TAFPAH
TAF
KPAH 041120Z 0412/0512 24008KT P6SM BKN070
     FM041400 27010G15KT P6SM VCSH BKN050
     FM041700 32015G25KT P6SM SCT050
     FM050200 33005KT P6SM FEW060=

USA.gov is the U.S. government's official web portal to all federal, state and local government web resources and services.